Time;durP1;ratioP1;P1;durP2;ratioP2;P2;SDS_P1;SDS_P2;PMS_P1;PMS_P2;Temp;Humidity;BMP_temperature;BMP_pressure;BME280_temperature;BME280_humidity;BME280_pressure;Samples;Min_cycle;Max_cycle;Signal;HPM_P1;HPM_P2
2022/08/27 00:02:15;;;;;;;5.72;1.63;;;;;;;16.76;100.00;101489.94;5025865;28;20053;-90
2022/08/27 00:04:43;;;;;;;4.43;1.50;;;;;;;16.61;100.00;101488.91;5022802;28;20045;-90
2022/08/27 00:07:11;;;;;;;4.88;1.48;;;;;;;16.74;100.00;101502.38;5025249;28;20064;-90
2022/08/27 00:09:38;;;;;;;4.60;1.50;;;;;;;16.71;100.00;101487.50;5022676;28;20050;-90
2022/08/27 00:12:07;;;;;;;5.75;1.65;;;;;;;16.59;100.00;101478.44;5028822;28;20053;-89
2022/08/27 00:14:37;;;;;;;5.82;1.60;;;;;;;16.63;100.00;101476.50;5024212;28;20045;-89
2022/08/27 00:17:05;;;;;;;3.53;1.25;;;;;;;16.68;100.00;101492.97;5028286;28;20049;-90
2022/08/27 00:19:34;;;;;;;8.70;2.22;;;;;;;16.62;100.00;101483.53;5026968;28;20403;-90
2022/08/27 00:22:02;;;;;;;4.03;1.13;;;;;;;16.54;100.00;101467.25;5032699;28;20057;-89
2022/08/27 00:24:29;;;;;;;5.40;1.40;;;;;;;16.57;100.00;101474.16;5028190;28;20053;-89
2022/08/27 00:26:55;;;;;;;7.00;1.73;;;;;;;16.58;100.00;101473.22;5022604;28;20053;-89
2022/08/27 00:29:22;;;;;;;4.53;1.40;;;;;;;16.47;100.00;101461.41;5022811;28;20056;-89
2022/08/27 00:31:49;;;;;;;2.80;1.10;;;;;;;16.77;100.00;101473.13;5029659;28;20049;-89
2022/08/27 00:34:21;;;;;;;3.53;1.20;;;;;;;16.84;100.00;101490.44;5028536;28;20054;-90
2022/08/27 00:36:48;;;;;;;3.90;1.17;;;;;;;16.83;100.00;101478.09;5027825;28;20057;-90
2022/08/27 00:39:15;;;;;;;4.60;1.20;;;;;;;16.83;100.00;101481.63;5025049;28;20049;-89
2022/08/27 00:41:42;;;;;;;3.47;1.42;;;;;;;16.67;100.00;101488.63;5030169;28;20063;-90
2022/08/27 00:44:10;;;;;;;3.55;1.35;;;;;;;16.55;100.00;101502.44;5028795;28;20496;-89
2022/08/27 00:46:43;;;;;;;6.00;1.30;;;;;;;16.48;100.00;101465.78;5029042;28;20161;-89
2022/08/27 00:49:17;;;;;;;1.70;0.80;;;;;;;16.79;100.00;101495.06;5023175;28;20049;-89
2022/08/27 00:51:53;;;;;;;3.38;1.17;;;;;;;16.85;100.00;101500.91;5025339;28;20059;-89
2022/08/27 00:54:20;;;;;;;5.32;1.50;;;;;;;16.51;100.00;101465.59;5025973;28;20054;-89
2022/08/27 00:56:48;;;;;;;5.00;1.52;;;;;;;16.59;100.00;101470.50;5030691;28;20049;-89
2022/08/27 00:59:20;;;;;;;4.65;1.50;;;;;;;16.46;100.00;101474.69;5016722;28;20638;-89
2022/08/27 01:04:34;;;;;;;5.68;1.50;;;;;;;16.29;100.00;101483.50;5032489;28;20136;-89
2022/08/27 01:07:02;;;;;;;4.65;1.27;;;;;;;16.11;100.00;101450.88;5026427;28;20125;-90
2022/08/27 01:09:29;;;;;;;4.18;1.33;;;;;;;16.26;100.00;101471.25;5021853;28;20668;-89
2022/08/27 01:11:57;;;;;;;4.97;1.40;;;;;;;16.32;100.00;101488.59;5017934;28;20046;-90
2022/08/27 01:14:26;;;;;;;6.18;1.30;;;;;;;16.29;100.00;101488.78;5018142;28;20050;-90
2022/08/27 01:16:55;;;;;;;4.20;1.20;;;;;;;16.29;100.00;101470.28;5031850;28;20173;-89
2022/08/27 01:19:33;;;;;;;4.80;1.20;;;;;;;16.59;100.00;101498.72;5023046;28;20141;-89
2022/08/27 01:22:21;;;;;;;5.53;1.60;;;;;;;16.39;100.00;101505.00;5018060;28;20471;-89
2022/08/27 01:24:52;;;;;;;5.55;1.63;;;;;;;16.24;100.00;101456.44;5020537;28;20054;-89
2022/08/27 01:27:23;;;;;;;4.80;1.30;;;;;;;16.31;100.00;101481.63;5021294;28;20787;-89
2022/08/27 01:29:50;;;;;;;6.38;1.50;;;;;;;16.42;100.00;101473.16;5022056;28;20050;-90
2022/08/27 01:32:22;;;;;;;3.67;1.30;;;;;;;16.39;100.00;101499.72;5020283;28;20054;-89
2022/08/27 01:34:50;;;;;;;6.30;1.42;;;;;;;16.46;100.00;101501.13;5013758;28;20050;-90
2022/08/27 01:37:19;;;;;;;4.30;1.15;;;;;;;16.37;100.00;101507.72;5017265;28;20056;-89
2022/08/27 01:39:50;;;;;;;3.85;1.42;;;;;;;16.27;100.00;101498.53;5027932;28;20053;-89
2022/08/27 01:42:32;;;;;;;3.78;1.25;;;;;;;16.18;100.00;101480.50;5019872;28;20061;-90
2022/08/27 01:45:04;;;;;;;4.97;1.30;;;;;;;16.28;100.00;101505.53;5027009;28;20060;-89
2022/08/27 01:47:32;;;;;;;5.78;1.30;;;;;;;16.28;100.00;101501.09;5021672;28;20132;-89
2022/08/27 01:50:02;;;;;;;4.68;1.55;;;;;;;16.30;100.00;101504.53;5023987;28;20140;-89
2022/08/27 01:52:30;;;;;;;4.40;1.55;;;;;;;16.09;100.00;101487.09;5027231;28;20056;-90
2022/08/27 01:54:57;;;;;;;6.80;1.70;;;;;;;16.09;100.00;101477.38;5010907;28;20052;-89
2022/08/27 01:57:25;;;;;;;6.55;1.70;;;;;;;16.07;100.00;101454.63;5016876;28;20172;-90
2022/08/27 01:59:53;;;;;;;6.28;1.83;;;;;;;16.14;100.00;101458.66;5029782;28;20480;-89
2022/08/27 02:02:21;;;;;;;4.75;1.45;;;;;;;16.12;100.00;101436.75;5015942;28;20438;-90
2022/08/27 02:04:49;;;;;;;5.75;1.30;;;;;;;16.56;100.00;101481.22;5039109;28;20069;-90
2022/08/27 02:07:17;;;;;;;5.68;1.25;;;;;;;16.66;100.00;101481.59;5031420;28;20056;-90
2022/08/27 02:09:44;;;;;;;7.15;1.70;;;;;;;16.40;100.00;101427.44;5034020;28;20056;-90
2022/08/27 02:12:10;;;;;;;6.75;1.58;;;;;;;16.44;100.00;101437.75;5022771;28;20058;-89
2022/08/27 02:14:37;;;;;;;6.00;1.60;;;;;;;16.64;100.00;101481.72;5019656;28;20091;-89
2022/08/27 02:17:04;;;;;;;8.05;1.80;;;;;;;16.47;100.00;101460.56;5033847;28;20049;-90
2022/08/27 02:19:31;;;;;;;8.50;1.75;;;;;;;16.29;100.00;101442.06;5024745;28;20041;-89
2022/08/27 02:21:59;;;;;;;4.22;1.52;;;;;;;16.48;100.00;101463.13;5035287;28;20484;-90
2022/08/27 02:24:27;;;;;;;7.28;2.03;;;;;;;16.62;100.00;101486.19;5034993;28;20053;-90
2022/08/27 02:26:54;;;;;;;6.20;2.22;;;;;;;16.44;100.00;101452.78;5033976;28;20566;-89
2022/08/27 02:29:21;;;;;;;6.45;2.13;;;;;;;16.67;100.00;101489.47;5033722;28;20056;-90
2022/08/27 02:31:49;;;;;;;6.47;2.00;;;;;;;16.81;100.00;101495.84;5035104;28;20051;-89
2022/08/27 02:34:17;;;;;;;7.28;1.90;;;;;;;16.76;100.00;101468.78;5034542;28;20050;-90
2022/08/27 02:36:44;;;;;;;6.40;2.15;;;;;;;16.74;100.00;101462.72;5019836;28;20041;-89
2022/08/27 02:39:11;;;;;;;6.53;2.13;;;;;;;16.73;100.00;101472.41;5015354;28;20081;-89
2022/08/27 02:41:38;;;;;;;5.03;1.65;;;;;;;16.85;100.00;101485.03;5034915;28;20049;-90
2022/08/27 02:44:05;;;;;;;6.20;2.10;;;;;;;16.82;100.00;101489.59;5034167;28;20052;-89
2022/08/27 02:46:37;;;;;;;9.18;2.10;;;;;;;16.71;100.00;101476.94;5031180;28;20056;-89
2022/08/27 02:49:05;;;;;;;7.68;1.88;;;;;;;16.67;100.00;101478.88;5031368;28;20060;-89
2022/08/27 02:51:32;;;;;;;8.77;2.63;;;;;;;16.61;100.00;101475.69;5033340;28;20087;-89
2022/08/27 02:54:01;;;;;;;7.93;2.17;;;;;;;16.77;100.00;101496.91;5033301;28;20041;-89
2022/08/27 02:56:28;;;;;;;6.85;2.25;;;;;;;16.75;100.00;101491.72;5033327;28;20503;-89
2022/08/27 02:58:55;;;;;;;4.97;2.05;;;;;;;16.68;100.00;101474.47;5032784;28;20053;-89
2022/08/27 03:01:22;;;;;;;6.93;2.17;;;;;;;16.74;100.00;101486.50;5034514;28;20072;-89
2022/08/27 03:03:49;;;;;;;9.43;2.45;;;;;;;16.56;100.00;101452.16;5033611;28;20107;-90
2022/08/27 03:06:15;;;;;;;7.03;2.20;;;;;;;16.45;100.00;101463.28;5020118;28;20476;-90
2022/08/27 03:08:42;;;;;;;8.40;2.45;;;;;;;16.71;100.00;101498.09;5021823;28;20045;-89
2022/08/27 03:11:21;;;;;;;7.45;2.53;;;;;;;16.46;100.00;101495.84;5032644;28;20127;-90
2022/08/27 03:13:48;;;;;;;6.20;2.20;;;;;;;16.54;100.00;101501.59;5023710;28;20048;-90
2022/08/27 03:16:15;;;;;;;7.40;2.13;;;;;;;16.44;100.00;101490.63;5031644;28;20128;-89
2022/08/27 03:18:42;;;;;;;7.95;2.60;;;;;;;16.42;100.00;101496.94;5032544;28;20087;-90
2022/08/27 03:21:19;;;;;;;6.35;1.85;;;;;;;16.43;100.00;101506.56;5033246;28;20049;-90
2022/08/27 03:23:46;;;;;;;6.20;2.22;;;;;;;16.16;100.00;101480.56;5032039;28;20053;-90
2022/08/27 03:26:13;;;;;;;5.63;2.10;;;;;;;16.29;100.00;101510.75;5024371;28;20046;-90
2022/08/27 03:28:40;;;;;;;5.20;2.15;;;;;;;15.92;100.00;101451.78;5032404;28;20138;-90
2022/08/27 03:31:12;;;;;;;6.97;2.28;;;;;;;16.11;100.00;101498.44;5032934;28;20041;-91
2022/08/27 03:33:39;;;;;;;6.57;2.30;;;;;;;16.03;100.00;101461.84;5032801;28;20083;-90
2022/08/27 03:36:07;;;;;;;9.38;3.00;;;;;;;15.80;100.00;101467.38;5032379;28;21953;-90
2022/08/27 03:38:34;;;;;;;6.82;2.13;;;;;;;15.94;100.00;101501.91;5032337;28;20124;-91
2022/08/27 03:41:02;;;;;;;8.27;2.05;;;;;;;16.26;100.00;101510.91;5031215;28;20411;-90
2022/08/27 03:43:30;;;;;;;8.38;2.05;;;;;;;16.09;100.00;101495.84;5016670;28;20068;-89
2022/08/27 03:45:56;;;;;;;7.65;1.95;;;;;;;16.20;100.00;101511.22;5024469;28;20050;-89
2022/08/27 03:48:29;;;;;;;3.83;1.58;;;;;;;16.13;100.00;101484.22;5025373;28;20072;-90
2022/08/27 03:50:56;;;;;;;5.88;1.90;;;;;;;16.11;100.00;101485.22;5023365;28;20529;-90
2022/08/27 03:53:23;;;;;;;5.05;1.50;;;;;;;16.11;100.00;101480.81;5032986;28;20049;-90
2022/08/27 03:55:50;;;;;;;8.55;1.88;;;;;;;16.19;100.00;101490.16;5020033;28;20049;-90
2022/08/27 03:58:17;;;;;;;5.25;1.73;;;;;;;16.30;100.00;101503.69;5032925;28;20053;-90
2022/08/27 04:00:44;;;;;;;7.18;1.90;;;;;;;16.44;100.00;101514.41;5031834;28;20494;-90
2022/08/27 04:03:12;;;;;;;6.72;1.60;;;;;;;16.41;100.00;101506.63;5032358;28;20056;-90
2022/08/27 04:05:40;;;;;;;6.00;1.75;;;;;;;16.11;100.00;101491.38;5032860;28;20080;-90
2022/08/27 04:08:11;;;;;;;4.00;1.40;;;;;;;15.75;100.00;101462.31;5024973;28;20060;-90
2022/08/27 04:10:39;;;;;;;5.03;1.88;;;;;;;15.77;100.00;101475.44;5032369;28;20045;-90
2022/08/27 04:13:06;;;;;;;7.00;1.65;;;;;;;15.80;100.00;101481.44;5032388;28;20123;-90
2022/08/27 04:15:33;;;;;;;6.50;1.60;;;;;;;15.68;100.00;101503.09;5031444;28;20075;-90
2022/08/27 04:18:03;;;;;;;5.15;1.60;;;;;;;15.79;100.00;101490.28;5020528;28;20056;-89
2022/08/27 04:20:30;;;;;;;4.78;1.77;;;;;;;15.67;100.00;101478.50;5025626;28;20049;-90
2022/08/27 04:23:01;;;;;;;6.07;2.03;;;;;;;15.63;100.00;101502.47;5031430;28;20046;-90
2022/08/27 04:25:28;;;;;;;7.95;1.90;;;;;;;15.64;100.00;101490.97;5031534;28;20045;-90
2022/08/27 04:27:55;;;;;;;5.13;1.70;;;;;;;15.78;100.00;101462.19;5032819;28;20059;-90
2022/08/27 04:30:22;;;;;;;5.68;1.85;;;;;;;16.05;100.00;101491.66;5032106;28;20128;-90
2022/08/27 04:32:49;;;;;;;4.45;1.42;;;;;;;16.09;100.00;101495.00;5030446;28;20133;-90
2022/08/27 04:35:16;;;;;;;6.35;1.75;;;;;;;16.19;100.00;101506.00;5020441;28;20111;-90
2022/08/27 04:37:43;;;;;;;4.55;1.40;;;;;;;16.12;100.00;101484.31;5031457;28;20073;-90
2022/08/27 04:40:11;;;;;;;4.47;1.60;;;;;;;16.13;100.00;101493.97;5020611;28;20050;-90
2022/08/27 04:42:38;;;;;;;7.03;1.90;;;;;;;16.00;100.00;101474.34;5018672;28;20076;-90
2022/08/27 04:45:05;;;;;;;8.43;2.53;;;;;;;16.00;100.00;101476.97;5025713;28;20138;-90
2022/08/27 04:47:32;;;;;;;10.25;2.83;;;;;;;16.05;100.00;101483.75;5022811;28;20053;-90
2022/08/27 04:49:58;;;;;;;11.23;4.90;;;;;;;16.07;100.00;101489.81;5020183;28;20048;-90
2022/08/27 04:52:27;;;;;;;11.95;4.53;;;;;;;15.94;100.00;101464.94;5031833;28;20049;-90
2022/08/27 04:54:54;;;;;;;10.05;4.53;;;;;;;16.03;100.00;101490.88;5032797;28;20057;-90
2022/08/27 04:57:21;;;;;;;10.80;4.28;;;;;;;16.15;100.00;101484.16;5032515;28;20058;-90
2022/08/27 04:59:49;;;;;;;10.38;3.85;;;;;;;16.04;100.00;101460.91;5019301;28;20089;-89
2022/08/27 05:02:16;;;;;;;14.35;5.13;;;;;;;16.05;100.00;101477.63;5030803;28;20049;-90
2022/08/27 05:04:43;;;;;;;12.98;5.00;;;;;;;16.03;100.00;101471.56;5018566;28;20057;-89
2022/08/27 05:07:10;;;;;;;14.00;5.60;;;;;;;16.01;100.00;101474.25;5025828;28;20472;-90
2022/08/27 05:09:37;;;;;;;11.85;4.85;;;;;;;16.17;100.00;101499.94;5025074;28;20055;-90
2022/08/27 05:12:04;;;;;;;12.70;5.57;;;;;;;15.96;100.00;101471.00;5029617;28;20045;-90
2022/08/27 05:14:31;;;;;;;10.50;5.07;;;;;;;16.02;100.00;101486.53;5031567;28;20055;-90
2022/08/27 05:16:58;;;;;;;11.13;5.10;;;;;;;15.83;100.00;101457.53;5030982;28;20079;-90
2022/08/27 05:19:26;;;;;;;15.13;5.30;;;;;;;16.03;100.00;101471.56;5030634;28;20053;-89
2022/08/27 05:21:52;;;;;;;10.82;4.70;;;;;;;16.04;100.00;101460.03;5031156;28;20050;-89
2022/08/27 05:24:20;;;;;;;11.48;5.10;;;;;;;16.17;100.00;101506.06;5017619;28;20207;-90
2022/08/27 05:26:47;;;;;;;16.23;5.53;;;;;;;16.03;100.00;101495.31;5031104;28;20132;-90
2022/08/27 05:29:15;;;;;;;13.18;4.55;;;;;;;16.23;100.00;101515.47;5031691;28;20056;-90
2022/08/27 05:31:42;;;;;;;11.13;4.75;;;;;;;16.29;100.00;101507.28;5031129;28;20056;-89
2022/08/27 05:34:10;;;;;;;9.52;4.15;;;;;;;15.90;100.00;101450.16;5031081;28;20053;-90
2022/08/27 05:36:52;;;;;;;11.43;5.20;;;;;;;16.31;100.00;101514.19;5017043;28;20053;-90
2022/08/27 05:39:18;;;;;;;10.00;4.68;;;;;;;16.06;100.00;101481.94;5027151;28;20084;-90
2022/08/27 05:41:45;;;;;;;11.45;5.75;;;;;;;16.08;100.00;101490.69;5033926;28;20051;-90
2022/08/27 05:44:14;;;;;;;11.80;4.10;;;;;;;16.08;100.00;101486.25;5034703;28;20056;-90
2022/08/27 05:47:01;;;;;;;11.63;4.75;;;;;;;16.38;100.00;101533.22;5034382;28;20061;-90
2022/08/27 05:49:28;;;;;;;10.18;4.65;;;;;;;16.31;100.00;101527.38;5034759;28;20045;-89
2022/08/27 05:51:55;;;;;;;11.80;5.20;;;;;;;16.14;100.00;101493.00;5034742;28;20055;-90
2022/08/27 05:54:22;;;;;;;10.45;4.82;;;;;;;16.06;100.00;101469.63;5023666;28;20050;-90
2022/08/27 05:56:49;;;;;;;11.23;5.00;;;;;;;16.19;100.00;101485.72;5033623;28;20045;-90
2022/08/27 06:02:04;;;;;;;12.00;5.07;;;;;;;16.52;100.00;101525.47;5035501;28;20140;-90
2022/08/27 06:04:32;;;;;;;11.13;4.90;;;;;;;16.62;100.00;101523.19;5023735;28;20448;-90
2022/08/27 06:06:59;;;;;;;10.40;4.40;;;;;;;16.50;100.00;101495.63;5029827;28;21291;-90
2022/08/27 06:09:30;;;;;;;9.48;4.25;;;;;;;16.68;100.00;101533.50;5019730;28;20054;-90
2022/08/27 06:12:00;;;;;;;13.82;5.07;;;;;;;16.42;100.00;101499.56;5019391;28;20045;-90
2022/08/27 06:14:28;;;;;;;11.15;5.15;;;;;;;16.36;100.00;101490.19;5025231;28;20047;-90
2022/08/27 06:16:57;;;;;;;13.15;5.63;;;;;;;16.50;100.00;101522.06;5029576;28;20053;-89
2022/08/27 06:19:24;;;;;;;13.32;5.68;;;;;;;16.57;100.00;101524.38;5014844;28;20484;-89
2022/08/27 06:21:51;;;;;;;14.02;6.05;;;;;;;16.56;100.00;101523.53;5017751;28;20068;-90
2022/08/27 06:24:27;;;;;;;14.32;6.25;;;;;;;16.29;100.00;101484.34;5015262;28;20050;-90
2022/08/27 06:26:55;;;;;;;10.50;4.57;;;;;;;16.46;100.00;101499.31;5033271;28;20084;-89
2022/08/27 06:29:23;;;;;;;12.73;4.72;;;;;;;16.44;100.00;101484.50;5023686;28;20063;-90
2022/08/27 06:31:51;;;;;;;12.38;5.30;;;;;;;16.69;100.00;101543.13;5030878;28;20395;-90
2022/08/27 06:34:21;;;;;;;12.23;5.85;;;;;;;16.34;100.00;101484.09;5028274;28;20058;-89
2022/08/27 06:36:48;;;;;;;12.20;5.80;;;;;;;16.78;100.00;101543.59;5026767;28;20051;-89
2022/08/27 06:39:24;;;;;;;12.13;6.10;;;;;;;16.57;100.00;101503.22;5025316;28;20052;-89
2022/08/27 06:41:51;;;;;;;11.27;4.55;;;;;;;16.66;100.00;101518.63;5020790;28;20065;-90
2022/08/27 06:44:19;;;;;;;13.27;5.80;;;;;;;16.72;100.00;101528.91;5028226;28;20056;-89
2022/08/27 06:46:46;;;;;;;12.00;5.43;;;;;;;16.41;100.00;101495.22;5021599;28;20053;-89
2022/08/27 06:49:13;;;;;;;11.52;5.57;;;;;;;16.61;100.00;101529.44;5025214;28;20060;-89
2022/08/27 06:51:44;;;;;;;12.73;5.82;;;;;;;16.57;100.00;101527.88;5028482;28;20057;-89
2022/08/27 06:54:12;;;;;;;11.55;5.45;;;;;;;16.41;100.00;101517.19;5017808;28;20064;-90
2022/08/27 06:56:41;;;;;;;10.75;4.80;;;;;;;16.72;100.00;101562.44;5022108;28;20053;-90
2022/08/27 06:59:10;;;;;;;11.80;5.47;;;;;;;16.28;100.00;101502.91;5024949;28;20054;-90
2022/08/27 07:01:42;;;;;;;15.57;5.68;;;;;;;16.23;100.00;101512.84;5018601;28;20060;-90
2022/08/27 07:04:13;;;;;;;13.23;3.78;;;;;;;16.33;100.00;101554.59;5030272;28;20393;-90
2022/08/27 07:06:40;;;;;;;12.52;4.68;;;;;;;15.88;100.00;101491.63;5030964;28;20377;-89
2022/08/27 07:09:08;;;;;;;13.13;4.18;;;;;;;15.94;100.00;101510.69;5021337;28;20384;-90
2022/08/27 07:11:35;;;;;;;8.35;3.30;;;;;;;16.29;100.00;101579.47;5032056;28;20051;-89
2022/08/27 07:14:03;;;;;;;11.32;4.30;;;;;;;15.93;100.00;101535.34;5028609;28;20084;-89
2022/08/27 07:16:30;;;;;;;8.70;3.30;;;;;;;15.84;100.00;101533.16;5019788;28;20393;-90
2022/08/27 07:19:01;;;;;;;14.50;5.07;;;;;;;16.13;100.00;101574.06;5015471;28;20576;-89
2022/08/27 07:21:31;;;;;;;10.50;3.75;;;;;;;15.81;100.00;101520.13;5034289;28;20490;-90
2022/08/27 07:24:03;;;;;;;9.02;3.47;;;;;;;16.17;100.00;101568.63;5034804;28;20112;-90
2022/08/27 07:26:33;;;;;;;12.57;4.17;;;;;;;16.25;100.00;101571.75;5019976;28;20046;-90
2022/08/27 07:29:01;;;;;;;11.50;3.63;;;;;;;16.05;100.00;101530.44;5027693;28;20290;-90
2022/08/27 07:31:28;;;;;;;13.85;4.45;;;;;;;15.39;100.00;101434.06;5022959;28;20052;-90
2022/08/27 07:33:55;;;;;;;14.65;4.60;;;;;;;15.78;100.00;101512.34;5034253;28;20160;-90
2022/08/27 07:36:22;;;;;;;15.80;5.25;;;;;;;16.16;100.00;101573.03;5029988;28;20393;-90
2022/08/27 07:38:51;;;;;;;14.63;5.40;;;;;;;15.92;100.00;101552.16;5029206;28;20045;-90
2022/08/27 07:41:29;;;;;;;10.82;3.70;;;;;;;16.13;100.00;101573.22;5025766;28;20667;-91
2022/08/27 07:46:54;;;;;;;15.05;5.88;;;;;;;15.90;100.00;101569.84;5036171;28;20410;-90
2022/08/27 07:49:22;;;;;;;16.00;6.18;;;;;;;15.89;100.00;101549.66;5032927;28;20540;-91
2022/08/27 07:51:50;;;;;;;15.27;6.07;;;;;;;15.82;100.00;101556.16;5028449;28;20042;-90
2022/08/27 07:54:17;;;;;;;16.67;5.82;;;;;;;16.06;100.00;101598.16;5023958;28;20812;-91
2022/08/27 07:56:44;;;;;;;17.83;6.95;;;;;;;16.02;100.00;101584.25;5027044;28;20051;-90
2022/08/27 07:59:23;;;;;;;14.52;4.45;;;;;;;15.98;100.00;101581.84;5031274;28;20073;-90
2022/08/27 08:01:52;;;;;;;16.83;5.80;;;;;;;16.21;100.00;101615.09;5020091;28;20132;-90
2022/08/27 08:04:19;;;;;;;13.40;5.20;;;;;;;16.19;100.00;101617.81;5022246;28;20045;-90
2022/08/27 08:06:46;;;;;;;27.38;10.10;;;;;;;15.95;100.00;101614.53;5028423;28;20053;-91
2022/08/27 08:09:13;;;;;;;16.80;6.53;;;;;;;15.83;100.00;101568.44;5014250;28;20120;-90
2022/08/27 08:11:40;;;;;;;13.55;5.63;;;;;;;16.00;100.00;101559.69;5029004;28;20049;-89
2022/08/27 08:14:07;;;;;;;21.65;8.25;;;;;;;16.02;100.00;101588.69;5033711;28;20129;-90
2022/08/27 08:16:34;;;;;;;20.73;8.45;;;;;;;16.23;100.00;101614.09;5022439;28;20086;-89
2022/08/27 08:19:00;;;;;;;19.63;7.03;;;;;;;15.92;100.00;101556.59;5027741;28;20053;-90
2022/08/27 08:21:27;;;;;;;12.80;6.28;;;;;;;16.00;100.00;101546.50;5023628;28;20046;-91
2022/08/27 08:23:55;;;;;;;18.58;6.30;;;;;;;16.33;100.00;101573.09;5036841;28;20103;-93
2022/08/27 08:26:22;;;;;;;23.10;8.70;;;;;;;16.15;100.00;101542.28;5043390;28;20139;-94
2022/08/27 08:28:51;;;;;;;14.75;6.55;;;;;;;16.22;100.00;101600.94;5042116;28;20557;-93
2022/08/27 08:31:18;;;;;;;17.35;6.68;;;;;;;16.29;100.00;101600.59;5034914;28;20038;-92
2022/08/27 08:33:49;;;;;;;15.45;6.85;;;;;;;16.08;100.00;101544.34;5031961;28;20088;-91
2022/08/27 08:36:17;;;;;;;20.80;8.45;;;;;;;15.82;100.00;101516.53;5039008;28;20091;-92
2022/08/27 08:38:45;;;;;;;16.08;7.15;;;;;;;15.65;100.00;101455.72;5039176;28;20057;-92
2022/08/27 08:41:42;;;;;;;16.85;7.22;;;;;;;16.50;100.00;101606.66;5040747;28;20069;-93
2022/08/27 08:44:13;;;;;;;15.52;5.53;;;;;;;16.31;100.00;101508.03;5042023;28;20111;-93
2022/08/27 08:47:10;;;;;;;17.73;6.07;;;;;;;16.93;100.00;101566.66;5034232;28;20054;-87
2022/08/27 08:50:03;;;;;;;19.80;7.07;;;;;;;17.20;100.00;101597.91;5026468;28;20058;-94
2022/08/27 08:52:33;;;;;;;17.73;8.00;;;;;;;17.45;100.00;101606.28;5026548;28;20054;-95
2022/08/27 08:55:16;;;;;;;11.27;5.35;;;;;;;17.51;100.00;101613.06;5026453;28;20050;-94
2022/08/27 08:58:20;;;;;;;11.38;4.60;;;;;;;17.71;100.00;101612.00;5027369;28;20054;-96
2022/08/27 09:00:55;;;;;;;15.67;6.47;;;;;;;16.98;100.00;101481.75;5026976;28;20049;-95
2022/08/27 09:03:24;;;;;;;14.48;4.28;;;;;;;17.22;100.00;101541.31;5027859;28;20089;-95
2022/08/27 09:05:59;;;;;;;8.35;3.65;;;;;;;16.76;100.00;101487.28;5026674;28;20081;-95
2022/08/27 09:08:31;;;;;;;9.45;3.58;;;;;;;17.59;100.00;101618.78;5027319;28;20057;-96
2022/08/27 09:11:18;;;;;;;14.48;4.15;;;;;;;17.51;100.00;101623.66;5028222;28;20057;-95
2022/08/27 09:13:52;;;;;;;12.07;4.55;;;;;;;17.29;100.00;101578.91;5026427;28;20076;-95
2022/08/27 09:16:21;;;;;;;9.90;2.85;;;;;;;17.41;100.00;101517.38;5026740;28;20053;-95
2022/08/27 09:18:49;;;;;;;8.73;2.78;;;;;;;17.47;100.00;101497.66;5026407;28;20089;-94
2022/08/27 09:21:44;;;;;;;10.30;3.30;;;;;;;17.99;100.00;101525.75;5021483;28;20133;-93
2022/08/27 09:24:15;;;;;;;9.30;2.53;;;;;;;18.50;100.00;101618.28;5035791;28;20076;-94
2022/08/27 09:26:43;;;;;;;7.40;2.53;;;;;;;17.27;100.00;101528.69;5044805;28;20423;-93
2022/08/27 09:29:20;;;;;;;7.38;2.22;;;;;;;17.67;100.00;101533.66;5043966;28;20046;-93
2022/08/27 09:32:04;;;;;;;6.18;2.45;;;;;;;18.44;100.00;101616.84;5043992;28;20145;-92
2022/08/27 09:34:38;;;;;;;6.45;1.90;;;;;;;17.74;100.00;101542.09;5043506;28;20049;-93
2022/08/27 09:37:16;;;;;;;8.73;2.83;;;;;;;17.46;100.00;101557.69;5044504;28;20049;-93
2022/08/27 09:40:22;;;;;;;7.20;2.25;;;;;;;17.01;100.00;101471.00;5045150;28;20057;-92
2022/08/27 09:42:52;;;;;;;7.80;2.58;;;;;;;17.97;100.00;101597.38;5036351;28;20045;-91
2022/08/27 09:45:23;;;;;;;9.93;2.33;;;;;;;17.84;100.00;101575.09;5034923;28;20484;-94
2022/08/27 09:47:53;;;;;;;5.75;1.92;;;;;;;17.60;100.00;101533.13;5036034;28;20113;-93
2022/08/27 09:50:23;;;;;;;6.15;2.22;;;;;;;17.73;100.00;101556.28;5036325;28;20045;-92
2022/08/27 09:52:57;;;;;;;8.23;2.22;;;;;;;18.00;100.00;101575.97;5031189;28;20056;-90
2022/08/27 09:55:28;;;;;;;8.90;2.13;;;;;;;18.08;100.00;101625.03;5017157;28;20483;-89
2022/08/27 09:57:55;;;;;;;9.40;3.50;;;;;;;17.54;100.00;101596.13;5017251;28;20053;-90
2022/08/27 10:00:38;;;;;;;4.38;1.48;;;;;;;18.11;100.00;101628.38;5034985;28;20061;-91
2022/08/27 10:03:08;;;;;;;6.07;1.93;;;;;;;18.12;100.00;101622.16;5014270;28;20113;-92
2022/08/27 10:05:42;;;;;;;7.30;1.60;;;;;;;18.08;100.00;101585.28;5021649;28;20080;-91
2022/08/27 10:08:23;;;;;;;8.60;2.67;;;;;;;18.20;100.00;101611.09;5042551;28;20050;-91
2022/08/27 10:11:01;;;;;;;5.20;1.75;;;;;;;18.38;100.00;101620.69;5021576;28;20049;-90
2022/08/27 10:13:32;;;;;;;5.05;1.50;;;;;;;18.57;100.00;101623.16;5036190;28;20059;-90
2022/08/27 10:16:04;;;;;;;7.85;1.90;;;;;;;18.59;100.00;101633.66;5017481;28;20060;-90
2022/08/27 10:19:08;;;;;;;4.00;1.52;;;;;;;18.79;100.00;101624.56;5017002;28;20045;-90
2022/08/27 10:22:10;;;;;;;;;;;;;;;19.05;100.00;101630.16;5032961;28;20049;-90
2022/08/27 10:25:02;;;;;;;7.90;2.33;;;;;;;18.90;100.00;101637.25;4965430;28;19922;-90
2022/08/27 10:27:35;;;;;;;7.20;1.77;;;;;;;18.30;100.00;101574.34;5034313;28;20041;-89
2022/08/27 10:30:15;;;;;;;9.98;2.63;;;;;;;18.95;100.00;101629.88;5035634;28;20505;-91
2022/08/27 10:33:21;;;;;;;5.07;1.60;;;;;;;19.00;100.00;101627.81;5032761;28;20130;-91
2022/08/27 10:36:18;;;;;;;5.82;1.83;;;;;;;19.21;100.00;101628.34;5020924;28;20050;-91
2022/08/27 10:39:00;;;;;;;7.57;2.78;;;;;;;19.09;100.00;101624.59;5026446;28;20046;-91
2022/08/27 10:41:37;;;;;;;8.60;2.00;;;;;;;19.03;100.00;101626.75;5035970;28;20494;-89
2022/08/27 10:44:18;;;;;;;9.18;1.73;;;;;;;19.06;100.00;101630.09;5021879;28;20049;-88
2022/08/27 10:46:59;;;;;;;7.82;2.33;;;;;;;19.13;100.00;101622.63;5032429;28;20377;-88
2022/08/27 10:50:03;;;;;;;6.05;1.77;;;;;;;19.24;100.00;101628.13;5032253;28;20059;-89
2022/08/27 10:52:48;;;;;;;9.07;1.98;;;;;;;19.08;100.00;101577.75;5023846;28;20054;-88
2022/08/27 10:55:27;;;;;;;4.47;1.23;;;;;;;19.40;100.00;101620.09;5022303;28;20535;-88
2022/08/27 10:58:17;;;;;;;8.43;1.70;;;;;;;19.39;100.00;101626.38;5027233;28;20136;-86
2022/08/27 11:01:05;;;;;;;6.03;1.30;;;;;;;18.99;100.00;101564.19;5026061;28;20049;-87
2022/08/27 11:03:46;;;;;;;5.18;1.35;;;;;;;19.08;100.00;101563.66;5033116;28;20049;-87
2022/08/27 11:06:20;;;;;;;5.38;1.55;;;;;;;19.22;100.00;101630.03;5022709;28;20081;-87
2022/08/27 11:08:56;;;;;;;7.10;2.28;;;;;;;19.00;100.00;101613.66;5016652;28;20489;-86
2022/08/27 11:12:01;;;;;;;6.40;1.40;;;;;;;18.99;100.00;101612.81;5030314;28;20064;-88
2022/08/27 11:15:13;;;;;;;4.85;1.30;;;;;;;19.05;100.00;101616.91;5028445;28;20053;-87
2022/08/27 11:17:43;;;;;;;6.45;1.67;;;;;;;18.85;100.00;101597.69;5012346;28;20050;-87
2022/08/27 11:20:17;;;;;;;6.38;1.63;;;;;;;18.97;100.00;101612.91;5030238;28;20060;-87
2022/08/27 11:22:50;;;;;;;6.47;1.45;;;;;;;18.70;100.00;101599.44;5032048;28;20045;-87
2022/08/27 11:25:49;;;;;;;6.85;1.58;;;;;;;18.90;100.00;101621.31;5022229;28;20081;-88
2022/08/27 11:28:36;;;;;;;6.15;1.67;;;;;;;18.84;100.00;101626.97;5026576;28;20072;-87
2022/08/27 11:31:13;;;;;;;6.03;1.73;;;;;;;18.70;100.00;101628.63;5026603;28;20057;-88
2022/08/27 11:33:56;;;;;;;5.45;1.58;;;;;;;18.66;100.00;101582.00;5029531;28;20041;-87
2022/08/27 11:36:47;;;;;;;8.35;1.48;;;;;;;19.25;100.00;101627.19;5025198;28;20056;-88
2022/08/27 11:39:45;;;;;;;5.05;1.30;;;;;;;19.31;100.00;101591.44;5016681;28;20046;-88
2022/08/27 11:42:34;;;;;;;5.70;1.73;;;;;;;19.69;100.00;101615.66;5024457;28;20463;-89
2022/08/27 11:45:28;;;;;;;5.93;1.85;;;;;;;19.42;100.00;101604.06;5032076;28;20119;-89